Dickinson, New York
Current Conditions -  °F | °C
As of 12:27 PM on Thursday 23 Oct 2014 (Local Time) from KBGM Reporting Station
Overcast Overcast  
Wind Chill: 41°   Ceiling: 1500
Heat Index: 47°   Visibility: 10mi
Dew Point: 40°   Wind: 15mph
Humidity: 77%   Direction: 350°N
Pressure: 29.88"   Gusts: 25mph
Location:  42.1759°N, 75.9402°W
Report Text: KBGM 231627Z 35013G22KT 10SM OVC015 08/04 A2988 RMK AO2 T00830044
Loading
Personal Weather Stations






























Interactive Weather Map
Tropical Storm Tracking
New forecast layout! Learn more

10-Day Weather Forecast

Advertisements
Track Severe Weather on mobile